Time;durP1;ratioP1;P1;durP2;ratioP2;P2;SDS_P1;SDS_P2;PMS_P1;PMS_P2;Temp;Humidity;BMP_temperature;BMP_pressure;BME280_temperature;BME280_humidity;BME280_pressure;Samples;Min_cycle;Max_cycle;Signal;HPM_P1;HPM_P2
2022/05/18 00:00:36;;;;;;;;;;;18.10;99.90;;;;;;5091462;27;37896;-59
2022/05/18 00:03:06;;;;;;;;;;;18.00;99.90;;;;;;5093213;27;36448;-59
2022/05/18 00:05:33;;;;;;;;;;;18.00;99.90;;;;;;5093020;27;38870;-59
2022/05/18 00:08:00;;;;;;;;;;;17.90;99.90;;;;;;5092179;27;39294;-59
2022/05/18 00:10:27;;;;;;;;;;;17.90;99.90;;;;;;5091992;27;35831;-59
2022/05/18 00:12:54;;;;;;;;;;;17.90;99.90;;;;;;5092742;27;37266;-59
2022/05/18 00:15:22;;;;;;;;;;;17.90;99.90;;;;;;5090519;27;36444;-58
2022/05/18 00:17:50;;;;;;;;;;;17.90;99.90;;;;;;5094110;27;36708;-58
2022/05/18 00:20:19;;;;;;;;;;;17.90;99.90;;;;;;5092644;27;37114;-59
2022/05/18 00:22:47;;;;;;;;;;;17.90;99.90;;;;;;5093880;27;36578;-58
2022/05/18 00:25:14;;;;;;;;;;;17.80;99.90;;;;;;5093009;27;39307;-59
2022/05/18 00:27:41;;;;;;;;;;;17.80;99.90;;;;;;5091439;27;39050;-58
2022/05/18 00:30:10;;;;;;;;;;;17.80;99.90;;;;;;5093695;27;38321;-59
2022/05/18 00:32:37;;;;;;;;;;;17.80;99.90;;;;;;5092109;27;36625;-59
2022/05/18 00:35:05;;;;;;;;;;;17.80;99.90;;;;;;5092102;27;39040;-58
2022/05/18 00:37:33;;;;;;;;;;;17.70;99.90;;;;;;5093949;27;36625;-59
2022/05/18 00:40:00;;;;;;;;;;;17.70;99.90;;;;;;5093224;27;35936;-58
2022/05/18 00:42:28;;;;;;;;;;;17.80;99.90;;;;;;5093287;27;36067;-58
2022/05/18 00:44:55;;;;;;;;;;;17.80;99.90;;;;;;5092988;27;37514;-59
2022/05/18 00:47:22;;;;;;;;;;;17.90;99.90;;;;;;5091837;27;38687;-58
2022/05/18 00:49:52;;;;;;;;;;;17.90;99.90;;;;;;5092336;27;37066;-58
2022/05/18 00:52:21;;;;;;;;;;;17.90;99.90;;;;;;5093647;27;34988;-58
2022/05/18 00:54:50;;;;;;;;;;;17.90;99.90;;;;;;5092600;27;36536;-58
2022/05/18 00:57:20;;;;;;;;;;;17.90;99.90;;;;;;5092316;27;37757;-58
2022/05/18 00:59:50;;;;;;;;;;;17.90;99.90;;;;;;5093683;27;37037;-58
2022/05/18 01:02:18;;;;;;;;;;;17.90;99.90;;;;;;5092535;27;36586;-45
2022/05/18 01:04:47;;;;;;;;;;;17.90;99.90;;;;;;5092667;27;36623;-48
2022/05/18 01:07:17;;;;;;;;;;;17.80;99.90;;;;;;5094467;27;39992;-46
2022/05/18 01:09:45;;;;;;;;;;;17.80;99.90;;;;;;5096783;27;37142;-45
2022/05/18 01:12:14;;;;;;;;;;;17.80;99.90;;;;;;5096613;27;36140;-46
2022/05/18 01:14:44;;;;;;;;;;;17.80;99.90;;;;;;5090103;27;36391;-44
2022/05/18 01:17:11;;;;;;;;;;;17.70;99.90;;;;;;5092531;27;36809;-46
2022/05/18 01:19:44;;;;;;;;;;;17.70;99.90;;;;;;5094809;27;38054;-47
2022/05/18 01:22:15;;;;;;;;;;;17.70;99.90;;;;;;5095559;27;35302;-46
2022/05/18 01:24:46;;;;;;;;;;;17.60;99.90;;;;;;5095482;27;36485;-45
2022/05/18 01:27:15;;;;;;;;;;;17.60;99.90;;;;;;5095073;27;36775;-46
2022/05/18 01:29:42;;;;;;;;;;;17.50;99.90;;;;;;5095235;27;36090;-45
2022/05/18 01:32:12;;;;;;;;;;;17.50;99.90;;;;;;5095084;27;36617;-45
2022/05/18 01:34:42;;;;;;;;;;;17.50;99.90;;;;;;5096400;27;37674;-49
2022/05/18 01:37:09;;;;;;;;;;;17.50;99.90;;;;;;5095887;27;39872;-45
2022/05/18 01:39:39;;;;;;;;;;;17.50;99.90;;;;;;5095137;27;35906;-45
2022/05/18 01:42:12;;;;;;;;;;;17.60;99.90;;;;;;5096005;27;36239;-44
2022/05/18 01:44:41;;;;;;;;;;;17.60;99.90;;;;;;5095935;27;36532;-45
2022/05/18 01:47:09;;;;;;;;;;;17.60;99.90;;;;;;5094437;27;37909;-46
2022/05/18 01:49:36;;;;;;;;;;;17.70;99.90;;;;;;5095375;27;39395;-44
2022/05/18 01:52:04;;;;;;;;;;;17.70;99.90;;;;;;5096068;27;36702;-44
2022/05/18 01:54:36;;;;;;;;;;;17.60;99.90;;;;;;5095545;27;37957;-46
2022/05/18 01:57:03;;;;;;;;;;;17.60;99.90;;;;;;5096160;27;37855;-45
2022/05/18 01:59:30;;;;;;;;;;;17.60;99.90;;;;;;5094427;27;37009;-46
2022/05/18 02:02:00;;;;;;;;;;;17.60;99.90;;;;;;5093877;27;35868;-45
2022/05/18 02:04:31;;;;;;;;;;;17.60;99.90;;;;;;5095752;27;37597;-47
2022/05/18 02:06:59;;;;;;;;;;;17.50;99.90;;;;;;5094298;27;36633;-45
2022/05/18 02:09:26;;;;;;;;;;;17.50;99.90;;;;;;5093998;27;39252;-46
2022/05/18 02:11:53;;;;;;;;;;;17.50;99.90;;;;;;5094403;27;37649;-47
2022/05/18 02:14:21;;;;;;;;;;;17.50;99.90;;;;;;5096005;27;37334;-44
2022/05/18 02:16:48;;;;;;;;;;;17.40;99.90;;;;;;5093339;27;38140;-44
2022/05/18 02:19:17;;;;;;;;;;;17.40;99.90;;;;;;5095035;27;37780;-47
2022/05/18 02:21:44;;;;;;;;;;;17.40;99.90;;;;;;5096769;27;37183;-46
2022/05/18 02:24:11;;;;;;;;;;;17.40;99.90;;;;;;5094456;27;37957;-45
2022/05/18 02:26:38;;;;;;;;;;;17.30;99.90;;;;;;5094881;27;37881;-46
2022/05/18 02:29:05;;;;;;;;;;;17.20;99.90;;;;;;5095423;27;38078;-45
2022/05/18 02:31:32;;;;;;;;;;;17.20;99.90;;;;;;5094273;27;36954;-45
2022/05/18 02:33:59;;;;;;;;;;;17.10;99.90;;;;;;5095480;27;37867;-44
2022/05/18 02:36:28;;;;;;;;;;;17.10;99.90;;;;;;5094058;27;39543;-45
2022/05/18 02:38:55;;;;;;;;;;;17.10;99.90;;;;;;5096058;27;38455;-45
2022/05/18 02:41:22;;;;;;;;;;;17.00;99.90;;;;;;5095033;27;36849;-46
2022/05/18 02:43:51;;;;;;;;;;;17.10;99.90;;;;;;5094199;27;37784;-45
2022/05/18 02:46:19;;;;;;;;;;;17.00;99.90;;;;;;5093401;27;38960;-45
2022/05/18 02:48:47;;;;;;;;;;;16.90;99.90;;;;;;5092646;27;40191;-58
2022/05/18 02:51:14;;;;;;;;;;;16.80;99.90;;;;;;5094088;27;36940;-58
2022/05/18 02:53:43;;;;;;;;;;;16.80;99.90;;;;;;5094270;27;36480;-58
2022/05/18 02:56:10;;;;;;;;;;;16.70;99.90;;;;;;5093604;27;36943;-58
2022/05/18 02:58:38;;;;;;;;;;;16.70;99.90;;;;;;5094132;27;37484;-58
2022/05/18 03:01:06;;;;;;;;;;;16.70;99.90;;;;;;5093515;27;37830;-58
2022/05/18 03:03:33;;;;;;;;;;;16.80;99.90;;;;;;5092929;27;37860;-58
2022/05/18 03:06:03;;;;;;;;;;;16.80;99.90;;;;;;5094081;27;37754;-58
2022/05/18 03:08:30;;;;;;;;;;;16.80;99.90;;;;;;5093135;27;37365;-58
2022/05/18 03:10:58;;;;;;;;;;;16.80;99.90;;;;;;5094018;27;39953;-58
2022/05/18 03:13:25;;;;;;;;;;;16.80;99.90;;;;;;5093728;27;39595;-57
2022/05/18 03:15:52;;;;;;;;;;;16.80;99.90;;;;;;5092323;27;38099;-58
2022/05/18 03:18:19;;;;;;;;;;;16.80;99.90;;;;;;5093770;27;39836;-58
2022/05/18 03:23:36;;;;;;;;;;;16.80;99.90;;;;;;5093836;27;38860;-58
2022/05/18 03:26:06;;;;;;;;;;;16.90;99.90;;;;;;5093844;27;39052;-58
2022/05/18 03:28:33;;;;;;;;;;;16.80;99.90;;;;;;5091182;27;37264;-58
2022/05/18 03:31:00;;;;;;;;;;;16.80;99.90;;;;;;5094585;27;35063;-58
2022/05/18 03:33:27;;;;;;;;;;;16.80;99.90;;;;;;5091816;27;37926;-58
2022/05/18 03:35:55;;;;;;;;;;;16.80;99.90;;;;;;5093548;27;36654;-58
2022/05/18 03:38:22;;;;;;;;;;;16.80;99.90;;;;;;5095072;27;37340;-58
2022/05/18 03:40:50;;;;;;;;;;;16.70;99.90;;;;;;5093751;27;36220;-58
2022/05/18 03:43:18;;;;;;;;;;;16.70;99.90;;;;;;5093107;27;40244;-58
2022/05/18 03:45:46;;;;;;;;;;;16.70;99.90;;;;;;5093633;27;39189;-58
2022/05/18 03:48:13;;;;;;;;;;;16.70;99.90;;;;;;5091750;27;37386;-58
2022/05/18 03:50:41;;;;;;;;;;;16.70;99.90;;;;;;5093631;27;36398;-58
2022/05/18 03:53:08;;;;;;;;;;;16.80;99.90;;;;;;5092424;27;37920;-58
2022/05/18 03:55:36;;;;;;;;;;;16.80;99.90;;;;;;5094509;27;38859;-58
2022/05/18 03:58:04;;;;;;;;;;;16.80;99.90;;;;;;5094041;27;36910;-58
2022/05/18 04:00:33;;;;;;;;;;;16.90;99.90;;;;;;5092121;27;37801;-58
2022/05/18 04:03:01;;;;;;;;;;;16.90;99.90;;;;;;5092377;27;37789;-58
2022/05/18 04:05:28;;;;;;;;;;;17.00;99.90;;;;;;5092868;27;36788;-58
2022/05/18 04:07:55;;;;;;;;;;;16.90;99.90;;;;;;5092711;27;37570;-58
2022/05/18 04:10:22;;;;;;;;;;;17.00;99.90;;;;;;5093536;27;37182;-58
2022/05/18 04:12:49;;;;;;;;;;;17.00;99.90;;;;;;5091717;27;38788;-58
2022/05/18 04:15:17;;;;;;;;;;;17.10;99.90;;;;;;5091116;27;36864;-58
2022/05/18 04:17:45;;;;;;;;;;;17.10;99.90;;;;;;5092137;27;38858;-58
2022/05/18 04:20:14;;;;;;;;;;;17.20;99.90;;;;;;5090887;27;35692;-58
2022/05/18 04:22:41;;;;;;;;;;;17.30;99.90;;;;;;5093018;27;36440;-58
2022/05/18 04:25:09;;;;;;;;;;;17.40;99.90;;;;;;5093306;27;38821;-58
2022/05/18 04:27:36;;;;;;;;;;;17.50;99.90;;;;;;5091699;27;37041;-58
2022/05/18 04:30:03;;;;;;;;;;;17.50;99.90;;;;;;5093252;27;36013;-58
2022/05/18 04:32:33;;;;;;;;;;;17.60;99.90;;;;;;5092778;27;38992;-58
2022/05/18 04:35:01;;;;;;;;;;;17.60;99.90;;;;;;5091110;27;38008;-58
2022/05/18 04:37:28;;;;;;;;;;;17.70;99.90;;;;;;5093961;27;37156;-58
2022/05/18 04:39:55;;;;;;;;;;;17.80;99.90;;;;;;5091632;27;37334;-57
2022/05/18 04:42:22;;;;;;;;;;;17.90;99.70;;;;;;5093021;27;37559;-58
2022/05/18 04:44:50;;;;;;;;;;;18.00;99.90;;;;;;5092631;27;38035;-58
2022/05/18 04:47:17;;;;;;;;;;;18.10;99.40;;;;;;5089582;27;36759;-58
2022/05/18 04:49:44;;;;;;;;;;;18.20;99.10;;;;;;5094303;27;37949;-58
2022/05/18 04:52:13;;;;;;;;;;;18.30;99.00;;;;;;5092422;27;37689;-59
2022/05/18 04:54:40;;;;;;;;;;;18.30;98.90;;;;;;5093350;27;38116;-58
2022/05/18 04:57:07;;;;;;;;;;;18.40;98.90;;;;;;5093125;27;38571;-58
2022/05/18 04:59:34;;;;;;;;;;;18.50;99.00;;;;;;5091704;27;36945;-58
2022/05/18 05:02:02;;;;;;;;;;;18.60;98.80;;;;;;5090728;27;36443;-58
2022/05/18 05:04:29;;;;;;;;;;;18.60;98.80;;;;;;5090864;27;38036;-58
2022/05/18 05:06:56;;;;;;;;;;;18.70;98.80;;;;;;5090471;27;36925;-58
2022/05/18 05:09:24;;;;;;;;;;;18.80;98.80;;;;;;5093805;27;36612;-58
2022/05/18 05:11:52;;;;;;;;;;;18.80;98.60;;;;;;5090713;27;37789;-58
2022/05/18 05:14:20;;;;;;;;;;;18.90;98.70;;;;;;5092449;27;39346;-58
2022/05/18 05:16:47;;;;;;;;;;;19.00;98.50;;;;;;5091984;27;36076;-58
2022/05/18 05:19:15;;;;;;;;;;;18.90;98.20;;;;;;5091730;27;38284;-59
2022/05/18 05:21:42;;;;;;;;;;;18.90;98.40;;;;;;5092252;27;39312;-58
2022/05/18 05:24:09;;;;;;;;;;;19.00;98.70;;;;;;5092593;27;36671;-58
2022/05/18 05:26:38;;;;;;;;;;;19.10;98.50;;;;;;5091704;27;39797;-58
2022/05/18 05:29:06;;;;;;;;;;;19.20;98.40;;;;;;5091867;27;37603;-58
2022/05/18 05:31:33;;;;;;;;;;;19.40;98.50;;;;;;5089239;27;39083;-58
2022/05/18 05:34:00;;;;;;;;;;;19.50;98.80;;;;;;5088945;27;36788;-57
2022/05/18 05:36:27;;;;;;;;;;;19.60;98.30;;;;;;5090043;27;37938;-58
2022/05/18 05:38:54;;;;;;;;;;;19.70;98.00;;;;;;5089735;27;36131;-58
2022/05/18 05:41:22;;;;;;;;;;;19.80;97.90;;;;;;5091302;27;39577;-57
2022/05/18 05:43:50;;;;;;;;;;;19.90;97.80;;;;;;5089048;27;39027;-57
2022/05/18 05:46:17;;;;;;;;;;;20.00;97.40;;;;;;5084775;27;38465;-57
2022/05/18 05:48:45;;;;;;;;;;;20.10;97.30;;;;;;5086106;27;36232;-57
2022/05/18 05:51:13;;;;;;;;;;;20.20;97.20;;;;;;5092496;27;37971;-57
2022/05/18 05:53:40;;;;;;;;;;;20.30;97.10;;;;;;5095900;27;38050;-57
2022/05/18 05:56:07;;;;;;;;;;;20.40;97.00;;;;;;5095398;27;37166;-57
2022/05/18 05:58:36;;;;;;;;;;;20.40;96.70;;;;;;5094573;27;36975;-57
2022/05/18 06:01:05;;;;;;;;;;;20.50;96.90;;;;;;5095399;27;37626;-57
2022/05/18 06:03:33;;;;;;;;;;;20.60;96.60;;;;;;5094716;27;38762;-57
2022/05/18 06:06:00;;;;;;;;;;;20.60;96.20;;;;;;5095697;27;39240;-57
2022/05/18 06:08:27;;;;;;;;;;;20.70;96.50;;;;;;5094810;27;36981;-57
2022/05/18 06:10:54;;;;;;;;;;;20.80;96.20;;;;;;5095299;27;38406;-57
2022/05/18 06:13:22;;;;;;;;;;;20.90;96.20;;;;;;5094939;27;38173;-57
2022/05/18 06:15:49;;;;;;;;;;;20.90;96.10;;;;;;5091534;27;36906;-57
2022/05/18 06:18:17;;;;;;;;;;;21.00;96.30;;;;;;5094201;27;37005;-57
2022/05/18 06:20:45;;;;;;;;;;;21.00;96.50;;;;;;5093637;27;37844;-57
2022/05/18 06:23:12;;;;;;;;;;;21.20;96.40;;;;;;5096406;27;37519;-57
2022/05/18 06:25:39;;;;;;;;;;;21.20;96.00;;;;;;5095405;27;38147;-57
2022/05/18 06:28:07;;;;;;;;;;;21.40;96.20;;;;;;5092202;27;37174;-57
2022/05/18 06:30:34;;;;;;;;;;;21.40;96.20;;;;;;5094520;27;36604;-57
2022/05/18 06:33:01;;;;;;;;;;;21.50;95.70;;;;;;5092625;27;38616;-57
2022/05/18 06:35:29;;;;;;;;;;;21.60;95.70;;;;;;5093076;27;38186;-57
2022/05/18 06:37:57;;;;;;;;;;;21.60;95.30;;;;;;5093082;27;35014;-57
2022/05/18 06:41:21;;;;;;;;;;;21.70;96.30;;;;;;5094232;27;39052;-47
2022/05/18 06:43:12;;;;;;;;;;;21.70;95.70;;;;;;5093986;27;37329;-48
2022/05/18 06:45:39;;;;;;;;;;;21.80;96.20;;;;;;5093842;27;38293;-49
2022/05/18 06:48:06;;;;;;;;;;;21.90;95.30;;;;;;5092001;27;35096;-46
2022/05/18 06:50:35;;;;;;;;;;;22.00;96.10;;;;;;5094333;27;38719;-49
2022/05/18 06:53:02;;;;;;;;;;;22.00;95.20;;;;;;5095743;27;37913;-49
2022/05/18 06:55:29;;;;;;;;;;;22.10;94.70;;;;;;5094448;27;38560;-46
2022/05/18 06:57:56;;;;;;;;;;;22.10;94.60;;;;;;5094469;27;36915;-49
2022/05/18 07:00:24;;;;;;;;;;;22.20;94.50;;;;;;5093502;27;37909;-48
2022/05/18 07:02:51;;;;;;;;;;;22.20;94.50;;;;;;5090925;27;36775;-46
2022/05/18 07:05:18;;;;;;;;;;;22.20;94.00;;;;;;5093976;27;37514;-58
2022/05/18 07:07:47;;;;;;;;;;;22.20;94.00;;;;;;5091442;27;37077;-57
2022/05/18 07:10:14;;;;;;;;;;;22.30;94.20;;;;;;5093110;27;38471;-58
2022/05/18 07:12:41;;;;;;;;;;;22.30;94.70;;;;;;5094986;27;37462;-57
2022/05/18 07:15:09;;;;;;;;;;;22.40;94.70;;;;;;5090159;27;37461;-58
2022/05/18 07:17:36;;;;;;;;;;;22.40;94.00;;;;;;5092804;27;35091;-58
2022/05/18 07:20:03;;;;;;;;;;;22.50;93.90;;;;;;5092662;27;38412;-58
2022/05/18 07:22:30;;;;;;;;;;;22.50;93.90;;;;;;5094250;27;38026;-57
2022/05/18 07:24:59;;;;;;;;;;;22.60;93.80;;;;;;5094093;27;39746;-56
2022/05/18 07:27:26;;;;;;;;;;;22.70;94.10;;;;;;5089321;27;36935;-57
2022/05/18 07:29:53;;;;;;;;;;;22.70;93.70;;;;;;5093721;27;37701;-58
2022/05/18 07:32:20;;;;;;;;;;;22.80;93.90;;;;;;5093212;27;39403;-46
2022/05/18 07:34:47;;;;;;;;;;;22.90;93.50;;;;;;5090384;27;36580;-50
2022/05/18 07:37:15;;;;;;;;;;;23.00;93.60;;;;;;5094273;27;35013;-48
2022/05/18 07:39:43;;;;;;;;;;;23.00;93.50;;;;;;5093436;27;36993;-47
2022/05/18 07:42:12;;;;;;;;;;;23.10;93.10;;;;;;5091439;27;37885;-47
2022/05/18 07:44:39;;;;;;;;;;;23.20;92.20;;;;;;5087480;27;36262;-50
2022/05/18 07:47:07;;;;;;;;;;;23.30;93.10;;;;;;5089997;27;36858;-50
2022/05/18 07:49:34;;;;;;;;;;;23.40;92.30;;;;;;5092883;27;39702;-48
2022/05/18 07:52:01;;;;;;;;;;;23.50;92.90;;;;;;5092572;27;38197;-50
2022/05/18 07:54:29;;;;;;;;;;;23.50;91.70;;;;;;5093448;27;37193;-46
2022/05/18 07:56:56;;;;;;;;;;;23.50;90.80;;;;;;5089698;27;38138;-49
2022/05/18 07:59:24;;;;;;;;;;;23.50;91.10;;;;;;5090845;27;38476;-50
2022/05/18 08:01:51;;;;;;;;;;;23.60;91.50;;;;;;5093962;27;37751;-47
2022/05/18 08:04:18;;;;;;;;;;;23.60;91.20;;;;;;5089866;27;37126;-49
2022/05/18 08:06:46;;;;;;;;;;;23.70;90.70;;;;;;5092192;27;36549;-48
2022/05/18 08:09:13;;;;;;;;;;;23.90;90.70;;;;;;5094104;27;36555;-47
2022/05/18 08:17:10;;;;;;;;;;;24.30;87.60;;;;;;5091928;27;37191;-48
2022/05/18 08:19:37;;;;;;;;;;;24.40;85.40;;;;;;5093208;27;37492;-48
2022/05/18 08:22:06;;;;;;;;;;;24.50;85.40;;;;;;5093523;27;37847;-50
2022/05/18 08:24:33;;;;;;;;;;;24.50;84.50;;;;;;5093299;27;37923;-48
2022/05/18 08:27:00;;;;;;;;;;;24.60;83.90;;;;;;5091451;27;39290;-49
2022/05/18 08:29:29;;;;;;;;;;;24.60;83.30;;;;;;5089795;27;37899;-47
2022/05/18 08:31:56;;;;;;;;;;;24.80;81.40;;;;;;5092309;27;38043;-50
2022/05/18 08:34:23;;;;;;;;;;;24.80;79.40;;;;;;5091094;27;36107;-46
2022/05/18 08:36:50;;;;;;;;;;;24.90;81.20;;;;;;5088624;27;36249;-47
2022/05/18 08:39:17;;;;;;;;;;;25.00;80.30;;;;;;5090159;27;38196;-45
2022/05/18 08:41:45;;;;;;;;;;;25.10;81.50;;;;;;5091585;27;39013;-49
2022/05/18 08:44:20;;;;;;;;;;;25.20;80.50;;;;;;5092268;27;37838;-49
2022/05/18 08:46:54;;;;;;;;;;;25.30;82.30;;;;;;5089189;27;36288;-46
2022/05/18 08:49:29;;;;;;;;;;;25.30;81.40;;;;;;5092977;27;37779;-50
2022/05/18 08:52:02;;;;;;;;;;;25.40;79.30;;;;;;5092404;27;39391;-46
2022/05/18 08:54:34;;;;;;;;;;;25.50;79.20;;;;;;5092687;27;40643;-46
2022/05/18 08:57:04;;;;;;;;;;;25.60;78.80;;;;;;5092413;27;36321;-48
2022/05/18 08:59:32;;;;;;;;;;;25.70;77.60;;;;;;5093519;27;37530;-48
2022/05/18 09:02:04;;;;;;;;;;;25.80;77.60;;;;;;5091425;27;38404;-50
2022/05/18 09:04:35;;;;;;;;;;;25.90;76.30;;;;;;5092126;27;36885;-51
2022/05/18 09:07:03;;;;;;;;;;;26.00;77.10;;;;;;5088496;27;36928;-48
2022/05/18 09:12:16;;;;;;;;;;;26.20;72.70;;;;;;5088840;27;37746;-48
2022/05/18 09:14:44;;;;;;;;;;;26.20;75.50;;;;;;5090828;27;39541;-50
2022/05/18 09:17:16;;;;;;;;;;;26.30;74.40;;;;;;5090574;27;36974;-48
2022/05/18 09:19:47;;;;;;;;;;;26.30;73.20;;;;;;5088324;27;37665;-47
2022/05/18 09:22:21;;;;;;;;;;;26.40;74.00;;;;;;5088461;27;39309;-47
2022/05/18 09:24:55;;;;;;;;;;;26.40;74.90;;;;;;5091834;27;38591;-48
2022/05/18 09:27:27;;;;;;;;;;;26.50;73.90;;;;;;5092778;27;36643;-49
2022/05/18 09:30:02;;;;;;;;;;;26.60;74.30;;;;;;5093599;27;36526;-47
2022/05/18 09:32:38;;;;;;;;;;;26.70;71.90;;;;;;5095280;27;38177;-50
2022/05/18 09:35:13;;;;;;;;;;;26.80;74.80;;;;;;5091707;27;37050;-49
2022/05/18 09:37:42;;;;;;;;;;;26.90;72.70;;;;;;5095355;27;35381;-47
2022/05/18 09:40:22;;;;;;;;;;;26.90;73.10;;;;;;5095409;27;38585;-46
2022/05/18 09:42:52;;;;;;;;;;;26.90;72.80;;;;;;5095431;27;37507;-47
2022/05/18 09:45:22;;;;;;;;;;;27.10;71.80;;;;;;5095377;27;37151;-50
2022/05/18 09:47:51;;;;;;;;;;;27.10;71.10;;;;;;5093479;27;37962;-48
2022/05/18 09:50:18;;;;;;;;;;;27.10;70.70;;;;;;5093306;27;36567;-49
2022/05/18 09:52:47;;;;;;;;;;;27.10;71.10;;;;;;5093114;27;37997;-50
2022/05/18 09:55:17;;;;;;;;;;;27.00;72.70;;;;;;5093408;27;36609;-49
2022/05/18 09:57:48;;;;;;;;;;;26.90;70.00;;;;;;5091241;27;38384;-47
2022/05/18 10:00:17;;;;;;;;;;;26.90;71.30;;;;;;5093121;27;39941;-47
2022/05/18 10:08:20;;;;;;;;;;;27.00;68.20;;;;;;5093270;27;38837;-58
2022/05/18 10:10:50;;;;;;;;;;;27.20;69.40;;;;;;5092892;27;41032;-59
2022/05/18 10:13:19;;;;;;;;;;;27.20;69.70;;;;;;5093315;27;36695;-58
2022/05/18 10:15:50;;;;;;;;;;;27.20;70.70;;;;;;5093811;27;39313;-58
2022/05/18 10:18:20;;;;;;;;;;;27.20;73.30;;;;;;5091750;27;36752;-46
2022/05/18 10:21:02;;;;;;;;;;;27.20;73.40;;;;;;5093029;27;37768;-49
2022/05/18 10:23:31;;;;;;;;;;;27.10;72.30;;;;;;5092039;27;38050;-51
2022/05/18 10:25:58;;;;;;;;;;;27.00;71.50;;;;;;5091516;27;38891;-50
2022/05/18 10:28:26;;;;;;;;;;;27.10;74.40;;;;;;5092786;27;35115;-51
2022/05/18 10:30:55;;;;;;;;;;;27.10;72.20;;;;;;5093492;27;39603;-50
2022/05/18 10:33:23;;;;;;;;;;;27.10;69.80;;;;;;5093313;27;37944;-47
2022/05/18 10:35:52;;;;;;;;;;;27.00;70.20;;;;;;5090809;27;37183;-48
2022/05/18 10:38:22;;;;;;;;;;;27.00;72.70;;;;;;5093483;27;36510;-50
2022/05/18 10:40:49;;;;;;;;;;;27.10;73.60;;;;;;5094788;27;39310;-58
2022/05/18 10:43:23;;;;;;;;;;;27.20;75.00;;;;;;5094917;27;37833;-58
2022/05/18 10:45:54;;;;;;;;;;;27.20;75.00;;;;;;5091999;27;37379;-59
2022/05/18 10:48:22;;;;;;;;;;;27.30;75.70;;;;;;5092030;27;36368;-58
2022/05/18 10:50:49;;;;;;;;;;;27.30;75.10;;;;;;5093628;27;38097;-58
2022/05/18 10:53:28;;;;;;;;;;;27.30;71.50;;;;;;5092234;27;36564;-59
2022/05/18 10:56:03;;;;;;;;;;;27.30;74.30;;;;;;5093208;27;38247;-59
2022/05/18 10:58:31;;;;;;;;;;;27.30;73.50;;;;;;5094104;27;38174;-59
2022/05/18 11:01:01;;;;;;;;;;;27.40;72.60;;;;;;5091717;27;37897;-58
2022/05/18 11:03:30;;;;;;;;;;;27.40;75.10;;;;;;5091420;27;37996;-58
2022/05/18 11:06:00;;;;;;;;;;;27.50;75.70;;;;;;5092916;27;37543;-58
2022/05/18 11:08:31;;;;;;;;;;;27.60;72.80;;;;;;5090373;27;36156;-59
2022/05/18 11:11:01;;;;;;;;;;;27.60;72.40;;;;;;5091005;27;38157;-58
2022/05/18 11:13:31;;;;;;;;;;;27.60;72.70;;;;;;5092736;27;37524;-59
2022/05/18 11:16:04;;;;;;;;;;;27.60;74.90;;;;;;5091744;27;38803;-59
2022/05/18 11:18:34;;;;;;;;;;;27.60;72.60;;;;;;5090693;27;36599;-59
2022/05/18 11:21:06;;;;;;;;;;;27.50;72.90;;;;;;5091636;27;40364;-59
2022/05/18 11:23:41;;;;;;;;;;;27.40;72.80;;;;;;5092893;27;38031;-58
2022/05/18 11:26:14;;;;;;;;;;;27.40;75.30;;;;;;5091719;27;36073;-59
2022/05/18 11:28:45;;;;;;;;;;;27.40;76.40;;;;;;5091910;27;34034;-58
2022/05/18 11:31:20;;;;;;;;;;;27.50;75.90;;;;;;5091616;27;37044;-59
2022/05/18 11:33:51;;;;;;;;;;;27.50;78.60;;;;;;5090770;27;36561;-59
2022/05/18 11:36:26;;;;;;;;;;;27.50;74.70;;;;;;5091622;27;36919;-59
2022/05/18 11:39:07;;;;;;;;;;;27.60;76.10;;;;;;5092585;27;36390;-59
2022/05/18 11:41:43;;;;;;;;;;;27.50;77.00;;;;;;5092648;27;38793;-59
2022/05/18 11:44:11;;;;;;;;;;;27.50;76.90;;;;;;5092610;27;38719;-58
2022/05/18 11:46:45;;;;;;;;;;;27.50;78.30;;;;;;5091276;27;37382;-59
2022/05/18 11:49:16;;;;;;;;;;;27.50;79.40;;;;;;5091030;27;37287;-59
2022/05/18 11:51:48;;;;;;;;;;;27.50;74.90;;;;;;5093432;27;36806;-59
2022/05/18 11:54:22;;;;;;;;;;;27.40;77.20;;;;;;5094060;27;39991;-59
2022/05/18 11:56:52;;;;;;;;;;;27.30;77.20;;;;;;5093072;27;36376;-48
2022/05/18 11:59:30;;;;;;;;;;;27.20;79.70;;;;;;5093125;27;37728;-51
2022/05/18 12:02:13;;;;;;;;;;;27.20;78.60;;;;;;5094492;27;37835;-50
2022/05/18 12:04:48;;;;;;;;;;;27.20;79.70;;;;;;5091702;27;37859;-50
2022/05/18 12:07:23;;;;;;;;;;;27.30;79.50;;;;;;5092148;27;36900;-47
2022/05/18 12:09:59;;;;;;;;;;;27.30;78.90;;;;;;5093582;27;39468;-47
2022/05/18 12:12:30;;;;;;;;;;;27.20;78.80;;;;;;5092846;27;39092;-47
2022/05/18 12:15:01;;;;;;;;;;;27.10;75.70;;;;;;5094186;27;36583;-47
2022/05/18 12:17:33;;;;;;;;;;;27.00;77.70;;;;;;5088590;27;37547;-46
2022/05/18 12:20:02;;;;;;;;;;;26.90;77.30;;;;;;5093533;27;35169;-47
2022/05/18 12:22:32;;;;;;;;;;;26.80;77.50;;;;;;5093320;27;37635;-47
2022/05/18 12:25:01;;;;;;;;;;;26.70;80.10;;;;;;5092654;27;40920;-49
2022/05/18 12:27:28;;;;;;;;;;;26.70;79.70;;;;;;5091066;27;37495;-47
2022/05/18 12:29:57;;;;;;;;;;;26.70;80.70;;;;;;5092524;27;37065;-49
2022/05/18 12:32:24;;;;;;;;;;;26.70;82.50;;;;;;5090886;27;38411;-49
2022/05/18 12:34:56;;;;;;;;;;;26.60;82.30;;;;;;5093049;27;37734;-49
2022/05/18 12:37:28;;;;;;;;;;;26.50;81.80;;;;;;5092265;27;38107;-51
2022/05/18 12:40:06;;;;;;;;;;;26.40;81.40;;;;;;5090916;27;36646;-47
2022/05/18 12:42:35;;;;;;;;;;;26.20;82.50;;;;;;5092004;27;38087;-47
2022/05/18 12:45:04;;;;;;;;;;;26.10;84.00;;;;;;5094122;27;38127;-51
2022/05/18 12:47:41;;;;;;;;;;;26.00;83.50;;;;;;5089394;27;38023;-46
2022/05/18 12:50:12;;;;;;;;;;;25.90;84.70;;;;;;5093246;27;36325;-48
2022/05/18 12:52:43;;;;;;;;;;;25.80;85.20;;;;;;5092756;27;38408;-46
2022/05/18 12:55:24;;;;;;;;;;;25.80;85.80;;;;;;5091470;27;38395;-47
2022/05/18 12:57:53;;;;;;;;;;;25.70;86.10;;;;;;5089888;27;38002;-48
2022/05/18 13:00:41;;;;;;;;;;;25.70;87.30;;;;;;5091507;27;36531;-49
2022/05/18 13:03:23;;;;;;;;;;;25.70;88.00;;;;;;5090538;27;37490;-50
2022/05/18 13:05:53;;;;;;;;;;;25.70;89.00;;;;;;5089232;27;37738;-49
2022/05/18 13:08:37;;;;;;;;;;;25.70;90.10;;;;;;5089851;27;36093;-46
2022/05/18 13:11:10;;;;;;;;;;;25.70;89.30;;;;;;5092638;27;37120;-48
2022/05/18 13:13:52;;;;;;;;;;;25.70;88.30;;;;;;5092231;27;37386;-51
2022/05/18 13:16:19;;;;;;;;;;;25.70;89.80;;;;;;5047297;27;38435;-49
2022/05/18 13:18:57;;;;;;;;;;;25.70;90.10;;;;;;5091045;27;38082;-47
2022/05/18 13:21:28;;;;;;;;;;;25.70;90.40;;;;;;5091992;27;36302;-51
2022/05/18 13:24:03;;;;;;;;;;;25.70;88.90;;;;;;5091962;27;38985;-48
2022/05/18 13:26:35;;;;;;;;;;;25.70;89.20;;;;;;5091289;27;38202;-50
2022/05/18 13:29:07;;;;;;;;;;;25.70;89.60;;;;;;5092424;27;37849;-51
2022/05/18 13:31:35;;;;;;;;;;;25.80;90.90;;;;;;5088918;27;36259;-46
2022/05/18 13:34:04;;;;;;;;;;;25.80;89.90;;;;;;5090382;27;38509;-50
2022/05/18 13:36:32;;;;;;;;;;;25.80;89.30;;;;;;5090694;27;39433;-48
2022/05/18 13:39:01;;;;;;;;;;;25.80;89.30;;;;;;5093140;27;37282;-47
2022/05/18 13:41:31;;;;;;;;;;;25.80;89.90;;;;;;5092083;27;36733;-47
2022/05/18 13:44:01;;;;;;;;;;;25.80;88.20;;;;;;5091408;27;37907;-47
2022/05/18 13:46:29;;;;;;;;;;;25.70;89.60;;;;;;5090446;27;36809;-46
2022/05/18 13:48:58;;;;;;;;;;;25.60;89.40;;;;;;5091178;27;37433;-48
2022/05/18 13:51:29;;;;;;;;;;;25.60;89.50;;;;;;5092910;27;36753;-50
2022/05/18 13:53:58;;;;;;;;;;;25.50;88.30;;;;;;5091065;27;38184;-48
2022/05/18 13:56:27;;;;;;;;;;;25.40;88.80;;;;;;5092231;27;38978;-49
2022/05/18 13:59:01;;;;;;;;;;;25.30;89.80;;;;;;5092036;27;35999;-46
2022/05/18 14:01:31;;;;;;;;;;;25.20;88.50;;;;;;5091760;27;36468;-58
2022/05/18 14:03:58;;;;;;;;;;;25.00;89.60;;;;;;5088717;27;37824;-58
2022/05/18 14:06:25;;;;;;;;;;;24.90;89.50;;;;;;5090849;27;37511;-57
2022/05/18 14:08:58;;;;;;;;;;;24.70;89.60;;;;;;5090981;27;37128;-57
2022/05/18 14:11:26;;;;;;;;;;;24.50;88.40;;;;;;5091852;27;37146;-57
2022/05/18 14:13:54;;;;;;;;;;;24.40;89.40;;;;;;5094317;27;37907;-57
2022/05/18 14:16:25;;;;;;;;;;;24.30;89.20;;;;;;5094508;27;37947;-57
2022/05/18 14:18:55;;;;;;;;;;;24.10;90.00;;;;;;5094364;27;38748;-57
2022/05/18 14:21:23;;;;;;;;;;;24.00;90.20;;;;;;5092862;27;36231;-58
2022/05/18 14:23:52;;;;;;;;;;;23.90;90.60;;;;;;5091476;27;37562;-58
2022/05/18 14:26:20;;;;;;;;;;;23.90;90.60;;;;;;5093296;27;37384;-57
2022/05/18 14:28:49;;;;;;;;;;;23.80;90.70;;;;;;5093553;27;37813;-58
2022/05/18 14:31:19;;;;;;;;;;;23.70;91.00;;;;;;5093947;27;37028;-57
2022/05/18 14:33:48;;;;;;;;;;;23.60;91.30;;;;;;5093494;27;37521;-57
2022/05/18 14:36:23;;;;;;;;;;;23.60;91.40;;;;;;5094725;27;38255;-57
2022/05/18 14:38:51;;;;;;;;;;;23.50;91.50;;;;;;5094248;27;37493;-57
2022/05/18 14:41:19;;;;;;;;;;;23.40;91.00;;;;;;5093052;27;38047;-57
2022/05/18 14:43:46;;;;;;;;;;;23.40;91.30;;;;;;5094961;27;38953;-46